»·PEaware :: UAL648 KLAS-KLAX

UAL648 :: KLAS-KLAX

FLIGHT INFORMATION

Flight Status: Arrived
Operator:
United Airlines
More flights by this operator :: More flights under this callsign
Pilot: Austin B. (27954)
Aircraft: BOEING 737-800
(B738)
More flights by this aircraft type
Origin: KLAS McCarran Intl
United States
Destination: KLAX Los Angeles Intl
United States
More flights between these airports :: More routes between these airports
Route: +BOACH8 RIKII SHTNR ANJLL4
File this flight plan on PilotEdge
Remarks:
Altitude:
(Current/Filed)
26,000ft
Speed:
(Current/Filed)
400kts
Departed: 22-Mar-20 04:13 PM
Arrived: 22-Mar-20 05:05 PM
Distance/Time
Traveled:
205nm/0:52
Distance/Time
To Go:
Arrived

Flight Plot

Page will automatically refresh every two minutes.

Flight plan parsing failed; only flown route is shown


Map Options




Map Legend


Flown Route
Filed Route
Departure Airport
Arrival Airport
Navaid (VOR, NDB)
Fix

Horizontal Profiles

Position Reports

Time Latitude Longitude Heading Altitude Ground
Speed
22-Mar-20 15:52 36.083209 -115.140191 130 2188ft 0kts
22-Mar-20 15:53 36.083209 -115.140191 130 2189ft 0kts
22-Mar-20 15:54 36.083209 -115.140191 130 2189ft 0kts
22-Mar-20 15:55 36.083209 -115.140191 130 2189ft 0kts
22-Mar-20 15:56 36.083209 -115.140191 130 2189ft 0kts
22-Mar-20 15:57 36.083209 -115.140191 130 2189ft 0kts
22-Mar-20 15:58 36.083209 -115.140191 130 2189ft 0kts
22-Mar-20 15:59 36.083209 -115.140191 130 2189ft 0kts
22-Mar-20 16:00 36.083209 -115.140191 130 2189ft 0kts
22-Mar-20 16:01 36.083209 -115.140191 130 2189ft 0kts
22-Mar-20 16:02 36.083551 -115.140693 130 2189ft 2kts
22-Mar-20 16:03 36.083615 -115.140786 130 2189ft 0kts
22-Mar-20 16:04 36.083614 -115.140786 130 2189ft 0kts
22-Mar-20 16:05 36.083219 -115.141051 243 2189ft 6kts
22-Mar-20 16:06 36.080555 -115.142431 179 2189ft 16kts
22-Mar-20 16:07 36.078830 -115.142425 180 2189ft 0kts
22-Mar-20 16:08 36.077769 -115.142485 207 2189ft 9kts
22-Mar-20 16:09 36.077815 -115.147790 275 2189ft 20kts
22-Mar-20 16:10 36.078043 -115.154317 269 2189ft 22kts
22-Mar-20 16:11 36.077668 -115.161289 190 2189ft 13kts
22-Mar-20 16:12 36.076407 -115.145525 89 2228ft 154kts
22-Mar-20 16:13 36.076511 -115.083042 91 4893ft 212kts
22-Mar-20 16:14 36.076093 -114.998750 90 6587ft 270kts
22-Mar-20 16:15 36.037422 -114.931460 163 9375ft 281kts
22-Mar-20 16:16 35.954963 -114.913264 198 12249ft 323kts
22-Mar-20 16:17 35.887610 -114.991552 227 15025ft 356kts
22-Mar-20 16:18 35.815392 -115.082474 229 17628ft 378kts
22-Mar-20 16:19 35.748745 -115.185952 232 18804ft 387kts
22-Mar-20 16:20 35.674481 -115.278734 207 21358ft 391kts
22-Mar-20 16:21 35.566005 -115.300136 189 24029ft 401kts
22-Mar-20 16:22 35.461243 -115.327455 217 25990ft 374kts
22-Mar-20 16:23 35.369140 -115.400196 217 26106ft 412kts
22-Mar-20 16:24 35.272675 -115.470957 217 26105ft 398kts
22-Mar-20 16:25 35.176480 -115.540482 217 26102ft 400kts
22-Mar-20 16:26 35.091917 -115.622022 229 27820ft 378kts
22-Mar-20 16:27 35.020045 -115.711816 231 30016ft 362kts
22-Mar-20 16:28 34.949786 -115.801453 231 30105ft 366kts
22-Mar-20 16:29 34.879463 -115.890725 231 30111ft 365kts
22-Mar-20 16:30 34.808687 -115.980383 231 30110ft 367kts
22-Mar-20 16:31 34.738348 -116.069627 230 30114ft 361kts
22-Mar-20 16:32 34.667724 -116.159369 230 30119ft 366kts
22-Mar-20 16:33 34.597138 -116.249354 230 30132ft 365kts
22-Mar-20 16:34 34.526223 -116.339156 230 30137ft 365kts
22-Mar-20 16:35 34.456485 -116.427106 230 30142ft 361kts
22-Mar-20 16:36 34.398243 -116.524107 242 30150ft 352kts
22-Mar-20 16:37 34.355111 -116.627088 243 30161ft 332kts
22-Mar-20 16:38 34.314496 -116.727016 244 29980ft 332kts
22-Mar-20 16:39 34.273937 -116.827782 243 28985ft 332kts
22-Mar-20 16:40 34.233797 -116.926968 243 27810ft 325kts
22-Mar-20 16:41 34.199181 -117.027338 250 26085ft 322kts
22-Mar-20 16:42 34.172273 -117.130139 249 24082ft 318kts
22-Mar-20 16:43 34.145346 -117.231351 249 22081ft 316kts
22-Mar-20 16:44 34.121406 -117.333044 252 20078ft 314kts
22-Mar-20 16:45 34.100422 -117.434747 252 18034ft 312kts
22-Mar-20 16:46 34.078978 -117.536413 253 15926ft 312kts
22-Mar-20 16:47 34.057734 -117.637497 253 13940ft 315kts
22-Mar-20 16:49 34.036488 -117.737599 252 12810ft 302kts
22-Mar-20 16:50 34.005797 -117.832823 247 11810ft 305kts
22-Mar-20 16:51 33.973990 -117.928041 247 10809ft 307kts
22-Mar-20 16:52 33.944844 -118.024515 256 10009ft 298kts
22-Mar-20 16:53 33.937170 -118.119330 262 9276ft 277kts
22-Mar-20 16:54 33.930432 -118.211453 262 8473ft 274kts
22-Mar-20 16:55 33.901780 -118.292298 235 7650ft 254kts
22-Mar-20 16:56 33.865118 -118.362205 235 6795ft 240kts
22-Mar-20 16:57 33.849715 -118.438608 262 6185ft 231kts
22-Mar-20 16:58 33.845860 -118.515658 261 5324ft 229kts
22-Mar-20 16:59 33.839877 -118.590090 272 4101ft 218kts
22-Mar-20 17:00 33.886777 -118.623538 346 3022ft 197kts
22-Mar-20 17:01 33.916467 -118.593965 86 2861ft 168kts
22-Mar-20 17:02 33.921741 -118.537864 84 2053ft 164kts
22-Mar-20 17:03 33.927183 -118.484575 84 1206ft 160kts
22-Mar-20 17:04 33.932070 -118.436824 83 441ft 134kts
22-Mar-20 17:05 33.935857 -118.399849 82 134ft 40kts
22-Mar-20 17:06 33.937251 -118.397517 311 134ft 2kts
22-Mar-20 17:07 33.938772 -118.398333 16 134ft 0kts
22-Mar-20 17:07 33.938873 -118.398335 350 134ft 1kts
22-Mar-20 17:09 33.939420 -118.402892 301 134ft 7kts
22-Mar-20 17:10 33.940011 -118.402421 77 134ft 0kts
22-Mar-20 17:10 33.940011 -118.402421 77 134ft 0kts
22-Mar-20 17:11 33.940011 -118.402421 77 134ft 0kts
22-Mar-20 17:12 33.940011 -118.402421 77 134ft 0kts
22-Mar-20 17:13 33.940011 -118.402421 77 134ft 0kts
22-Mar-20 17:14 33.940011 -118.402421 77 134ft 0kts
22-Mar-20 17:15 33.940011 -118.402421 77 134ft 0kts
22-Mar-20 17:16 33.940011 -118.402421 77 134ft 0kts
22-Mar-20 17:17 33.940011 -118.402421 77 134ft 0kts
22-Mar-20 17:18 33.940011 -118.402421 77 134ft 0kts

Navigation Log

Ident Type
Flight plan parsing failed, navigation log unavailable